createdAt,value
2024-02-02T00:01:18.484Z,4.40
2024-02-02T00:03:45.441Z,4.40
2024-02-02T00:06:12.355Z,4.40
2024-02-02T00:08:39.190Z,4.40
2024-02-02T00:11:06.884Z,4.40
2024-02-02T00:13:33.890Z,4.40
2024-02-02T00:16:00.720Z,4.40
2024-02-02T00:18:28.048Z,4.40
2024-02-02T00:20:55.517Z,4.40
2024-02-02T00:23:22.529Z,4.40
2024-02-02T00:25:49.361Z,4.40
2024-02-02T00:28:16.564Z,4.40
2024-02-02T00:30:43.831Z,4.40
2024-02-02T00:33:11.063Z,4.30
2024-02-02T00:35:38.030Z,4.30
2024-02-02T00:38:05.195Z,4.40
2024-02-02T00:40:32.086Z,4.40
2024-02-02T00:42:58.981Z,4.30
2024-02-02T00:45:25.905Z,4.40
2024-02-02T00:47:52.945Z,4.40
2024-02-02T00:50:19.876Z,4.40
2024-02-02T00:52:46.698Z,4.40
2024-02-02T00:55:13.523Z,4.40
2024-02-02T00:57:40.581Z,4.40
2024-02-02T01:00:11.511Z,4.40
2024-02-02T01:02:40.349Z,4.40
2024-02-02T01:05:09.525Z,4.40
2024-02-02T01:07:36.479Z,4.40
2024-02-02T01:10:05.355Z,4.30
2024-02-02T01:12:32.219Z,4.30
2024-02-02T01:14:59.179Z,4.40
2024-02-02T01:17:26.019Z,4.30
2024-02-02T01:19:52.904Z,4.30
2024-02-02T01:22:19.839Z,4.30
2024-02-02T01:24:46.673Z,4.30
2024-02-02T01:27:13.582Z,4.30
2024-02-02T01:29:40.425Z,4.30
2024-02-02T01:32:07.727Z,4.30
2024-02-02T01:34:34.689Z,4.30
2024-02-02T01:37:02.932Z,4.40
2024-02-02T01:39:29.839Z,4.40
2024-02-02T01:41:56.736Z,4.40
2024-02-02T01:44:23.626Z,4.40
2024-02-02T01:46:50.771Z,4.40
2024-02-02T01:49:18.015Z,4.40
2024-02-02T01:51:45.089Z,4.40
2024-02-02T01:54:12.197Z,4.30
2024-02-02T01:56:39.223Z,4.30
2024-02-02T01:59:06.782Z,4.30
2024-02-02T02:01:33.766Z,4.40
2024-02-02T02:04:01.597Z,4.40
2024-02-02T02:06:28.658Z,4.40
2024-02-02T02:08:55.796Z,4.40
2024-02-02T02:11:22.772Z,4.30
2024-02-02T02:13:49.688Z,4.40
2024-02-02T02:16:16.661Z,4.40
2024-02-02T02:18:52.459Z,4.40
2024-02-02T02:21:24.950Z,4.40
2024-02-02T02:23:52.689Z,4.40
2024-02-02T02:26:20.446Z,4.40
2024-02-02T02:28:48.557Z,4.40
2024-02-02T02:31:16.628Z,4.30
2024-02-02T02:33:45.340Z,4.40
2024-02-02T02:36:15.461Z,4.30
2024-02-02T02:38:44.653Z,4.40
2024-02-02T02:41:11.634Z,4.40
2024-02-02T02:43:38.581Z,4.30
2024-02-02T02:46:06.058Z,4.30
2024-02-02T02:48:33.236Z,4.30
2024-02-02T02:51:00.715Z,4.30
2024-02-02T02:53:27.882Z,4.30
2024-02-02T02:55:54.840Z,4.30
2024-02-02T02:58:21.673Z,4.30
2024-02-02T03:00:49.049Z,4.30
2024-02-02T03:03:15.955Z,4.30
2024-02-02T03:05:42.903Z,4.30
2024-02-02T03:08:10.116Z,4.30
2024-02-02T03:10:37.034Z,4.40
2024-02-02T03:13:04.008Z,4.30
2024-02-02T03:15:32.807Z,4.40
2024-02-02T03:17:59.962Z,4.30
2024-02-02T03:20:29.951Z,4.30
2024-02-02T03:22:57.295Z,4.30
2024-02-02T03:25:24.501Z,4.40
2024-02-02T03:27:51.550Z,4.40
2024-02-02T03:30:18.419Z,4.40
2024-02-02T03:32:45.945Z,4.30
2024-02-02T03:35:13.474Z,4.30
2024-02-02T03:37:40.377Z,4.30
2024-02-02T03:40:07.842Z,4.30
2024-02-02T03:42:34.751Z,4.30
2024-02-02T03:45:01.743Z,4.40
2024-02-02T03:47:28.640Z,4.30
2024-02-02T03:49:55.599Z,4.30
2024-02-02T03:52:24.794Z,4.30
2024-02-02T03:54:52.150Z,4.30
2024-02-02T03:57:20.013Z,4.30
2024-02-02T03:59:46.872Z,4.40
2024-02-02T04:02:13.861Z,4.40
2024-02-02T04:04:40.745Z,4.40
2024-02-02T04:07:07.667Z,4.30
2024-02-02T04:09:34.783Z,4.30
2024-02-02T04:12:01.867Z,4.30
2024-02-02T04:14:28.840Z,4.30
2024-02-02T04:16:55.708Z,4.20
2024-02-02T04:19:23.045Z,4.20
2024-02-02T04:21:50.114Z,4.20
2024-02-02T04:24:17.917Z,4.20
2024-02-02T04:26:44.857Z,4.10
2024-02-02T04:29:12.237Z,4.10
2024-02-02T04:31:39.086Z,4.10
2024-02-02T04:34:06.028Z,4.10
2024-02-02T04:36:33.123Z,4.00
2024-02-02T04:38:59.994Z,4.10
2024-02-02T04:41:26.857Z,4.10
2024-02-02T04:43:53.674Z,4.00
2024-02-02T04:46:20.502Z,4.00
2024-02-02T04:48:47.483Z,4.00
2024-02-02T04:51:14.439Z,3.90
2024-02-02T04:53:41.336Z,3.90
2024-02-02T04:56:08.244Z,3.90
2024-02-02T04:58:35.090Z,3.90
2024-02-02T05:01:01.953Z,3.90
2024-02-02T05:03:31.685Z,3.90
2024-02-02T05:05:58.973Z,3.90
2024-02-02T05:08:26.062Z,3.90
2024-02-02T05:10:52.924Z,3.90
2024-02-02T05:13:19.798Z,3.90
2024-02-02T05:15:47.287Z,3.90
2024-02-02T05:18:15.422Z,3.90
2024-02-02T05:20:42.392Z,3.90
2024-02-02T05:23:09.401Z,3.90
2024-02-02T05:25:36.770Z,3.90
2024-02-02T05:28:05.201Z,3.90
2024-02-02T05:30:32.344Z,3.80
2024-02-02T05:32:59.340Z,3.90
2024-02-02T05:35:26.210Z,3.80
2024-02-02T05:37:53.042Z,3.80
2024-02-02T05:40:19.890Z,3.80
2024-02-02T05:42:46.941Z,3.80
2024-02-02T05:45:14.260Z,3.80
2024-02-02T05:47:41.214Z,3.80
2024-02-02T05:50:08.499Z,3.80
2024-02-02T05:52:35.451Z,3.80
2024-02-02T05:55:02.502Z,3.80
2024-02-02T05:57:29.419Z,3.80
2024-02-02T05:59:56.826Z,3.90
2024-02-02T06:02:23.710Z,3.80
2024-02-02T06:04:52.123Z,3.80
2024-02-02T06:07:19.167Z,3.80
2024-02-02T06:09:46.308Z,3.80
2024-02-02T06:12:13.316Z,3.80
2024-02-02T06:14:40.920Z,3.80
2024-02-02T06:17:10.275Z,3.90
2024-02-02T06:19:37.442Z,3.80
2024-02-02T06:22:04.362Z,3.90
2024-02-02T06:24:31.308Z,3.90
2024-02-02T06:26:58.242Z,3.90
2024-02-02T06:29:27.323Z,3.90
2024-02-02T06:31:55.925Z,3.90
2024-02-02T06:34:22.873Z,3.90
2024-02-02T06:36:49.862Z,3.90
2024-02-02T06:39:16.771Z,3.90
2024-02-02T06:41:43.819Z,3.90
2024-02-02T06:44:12.076Z,3.90
2024-02-02T06:46:39.021Z,3.90
2024-02-02T06:49:05.941Z,4.00
2024-02-02T06:51:32.997Z,4.00
2024-02-02T06:54:00.063Z,4.00
2024-02-02T06:56:44.036Z,4.00
2024-02-02T06:59:11.366Z,4.00
2024-02-02T07:01:39.620Z,4.00
2024-02-02T07:04:13.639Z,4.00
2024-02-02T07:06:41.111Z,4.00
2024-02-02T07:09:34.264Z,4.00
2024-02-02T07:12:08.150Z,4.00
2024-02-02T07:14:46.651Z,4.00
2024-02-02T07:17:34.947Z,4.10
2024-02-02T07:20:05.511Z,4.10
2024-02-02T07:22:42.699Z,4.10
2024-02-02T07:25:18.032Z,4.10
2024-02-02T07:28:00.912Z,4.10
2024-02-02T07:30:52.180Z,4.10
2024-02-02T07:33:26.494Z,4.10
2024-02-02T07:35:55.231Z,4.10
2024-02-02T07:38:28.058Z,4.20
2024-02-02T07:41:11.558Z,4.20
2024-02-02T07:43:38.431Z,4.20
2024-02-02T07:46:10.494Z,4.20
2024-02-02T07:48:41.006Z,4.30
2024-02-02T07:51:12.645Z,4.30
2024-02-02T07:53:40.041Z,4.40
2024-02-02T07:56:07.254Z,4.40
2024-02-02T07:58:34.121Z,4.40
2024-02-02T08:01:01.230Z,4.40
2024-02-02T08:03:28.270Z,4.50
2024-02-02T08:05:55.273Z,4.50
2024-02-02T08:08:22.225Z,4.50
2024-02-02T08:10:49.092Z,4.60
2024-02-02T08:13:17.158Z,4.60
2024-02-02T08:15:44.516Z,4.60
2024-02-02T08:18:12.529Z,4.70
2024-02-02T08:20:39.730Z,4.70
2024-02-02T08:23:07.391Z,4.80
2024-02-02T08:25:34.749Z,4.80
2024-02-02T08:28:02.769Z,4.80
2024-02-02T08:30:29.777Z,4.80
2024-02-02T08:32:57.064Z,4.90
2024-02-02T08:35:25.631Z,4.90
2024-02-02T08:38:03.336Z,5.00
2024-02-02T08:40:40.885Z,5.10
2024-02-02T08:43:12.728Z,5.20
2024-02-02T08:45:42.715Z,5.30
2024-02-02T08:48:33.900Z,5.30
2024-02-02T08:51:01.611Z,5.50
2024-02-02T08:53:30.682Z,5.50
2024-02-02T08:56:02.120Z,5.60
2024-02-02T08:58:36.008Z,5.60
2024-02-02T09:01:04.788Z,5.60
2024-02-02T09:03:45.947Z,5.70
2024-02-02T09:06:44.372Z,5.80
2024-02-02T09:09:15.814Z,5.80
2024-02-02T09:11:48.644Z,6.10
2024-02-02T09:14:18.782Z,6.10
2024-02-02T09:16:50.363Z,6.20
2024-02-02T09:19:38.831Z,6.50
2024-02-02T09:22:12.829Z,6.40
2024-02-02T09:24:49.983Z,6.40
2024-02-02T09:27:40.189Z,6.40
2024-02-02T09:30:18.888Z,6.40
2024-02-02T09:32:46.207Z,6.50
2024-02-02T09:35:51.276Z,6.60
2024-02-02T09:38:18.159Z,6.50
2024-02-02T09:41:03.260Z,6.70
2024-02-02T09:43:48.380Z,6.80
2024-02-02T09:46:31.837Z,6.80
2024-02-02T09:49:07.960Z,6.70
2024-02-02T09:51:59.151Z,6.70
2024-02-02T09:54:41.536Z,7.30
2024-02-02T09:57:20.263Z,7.90
2024-02-02T10:00:09.190Z,7.80
2024-02-02T10:03:04.997Z,7.70
2024-02-02T10:05:43.655Z,7.60
2024-02-02T10:08:22.154Z,7.50
2024-02-02T10:11:13.125Z,7.30
2024-02-02T10:14:00.883Z,7.20
2024-02-02T10:16:52.404Z,7.10
2024-02-02T10:19:38.447Z,7.20
2024-02-02T10:22:29.745Z,7.20
2024-02-02T10:25:17.679Z,7.20
2024-02-02T10:28:14.588Z,7.10
2024-02-02T10:31:01.809Z,7.20
2024-02-02T10:33:54.346Z,7.20
2024-02-02T10:36:24.368Z,7.30
2024-02-02T10:38:54.157Z,7.30
2024-02-02T10:41:52.377Z,7.10
2024-02-02T10:44:59.285Z,7.00
2024-02-02T10:47:39.878Z,7.30
2024-02-02T10:50:19.220Z,7.40
2024-02-02T10:53:07.591Z,7.30
2024-02-02T10:55:54.344Z,7.40
2024-02-02T10:58:37.616Z,7.40
2024-02-02T11:01:04.900Z,7.30
2024-02-02T11:03:42.789Z,7.40
2024-02-02T11:06:26.757Z,7.40
2024-02-02T11:09:10.971Z,7.30
2024-02-02T11:11:43.018Z,7.30
2024-02-02T11:14:19.094Z,7.40
2024-02-02T11:17:15.843Z,7.50
2024-02-02T11:20:13.742Z,7.40
2024-02-02T11:22:57.951Z,7.20
2024-02-02T11:25:39.231Z,7.20
2024-02-02T11:28:16.736Z,7.10
2024-02-02T11:31:07.487Z,7.00
2024-02-02T11:33:52.320Z,6.90
2024-02-02T11:36:46.979Z,6.90
2024-02-02T11:39:39.536Z,6.80
2024-02-02T11:42:11.752Z,6.50
2024-02-02T11:44:41.797Z,6.40
2024-02-02T11:47:10.530Z,6.30
2024-02-02T11:49:45.907Z,6.40
2024-02-02T11:52:28.629Z,6.50
2024-02-02T11:55:19.791Z,6.50
2024-02-02T11:57:51.280Z,6.60
2024-02-02T12:00:47.438Z,6.50
2024-02-02T12:03:38.708Z,6.40
2024-02-02T12:06:18.197Z,6.30
2024-02-02T12:08:54.293Z,6.30
2024-02-02T12:11:29.531Z,6.30
2024-02-02T12:14:13.044Z,6.30
2024-02-02T12:16:39.906Z,6.40
2024-02-02T12:19:08.125Z,6.40
2024-02-02T12:21:35.288Z,6.40
2024-02-02T12:24:02.251Z,6.50
2024-02-02T12:26:29.541Z,6.50
2024-02-02T12:28:56.534Z,6.50
2024-02-02T12:31:23.426Z,6.60
2024-02-02T12:33:50.903Z,6.60
2024-02-02T12:36:19.358Z,6.70
2024-02-02T12:38:47.365Z,6.70
2024-02-02T12:41:14.414Z,6.70
2024-02-02T12:43:47.260Z,6.70
2024-02-02T12:46:14.969Z,6.80
2024-02-02T12:48:42.122Z,6.80
2024-02-02T12:51:09.240Z,6.80
2024-02-02T12:53:36.664Z,6.90
2024-02-02T12:56:06.293Z,6.90
2024-02-02T12:58:33.491Z,6.90
2024-02-02T13:01:00.629Z,7.00
2024-02-02T13:03:37.704Z,7.00
2024-02-02T13:06:11.827Z,7.10
2024-02-02T13:08:39.377Z,7.20
2024-02-02T13:11:07.435Z,7.20
2024-02-02T13:13:34.843Z,7.20
2024-02-02T13:16:06.752Z,7.20
2024-02-02T13:18:39.003Z,7.20
2024-02-02T13:21:25.155Z,7.30
2024-02-02T13:23:59.937Z,7.30
2024-02-02T13:26:37.732Z,7.30
2024-02-02T13:29:09.005Z,7.30
2024-02-02T13:31:38.852Z,7.20
2024-02-02T13:34:06.711Z,7.20
2024-02-02T13:36:40.271Z,7.20
2024-02-02T13:39:07.609Z,7.20
2024-02-02T13:41:35.302Z,7.20
2024-02-02T13:44:05.846Z,7.30
2024-02-02T13:46:33.482Z,7.30
2024-02-02T13:49:01.791Z,7.30
2024-02-02T13:51:29.753Z,7.30
2024-02-02T13:53:57.946Z,7.30
2024-02-02T13:56:29.996Z,7.20
2024-02-02T13:59:11.344Z,7.20
2024-02-02T14:01:38.716Z,7.30
2024-02-02T14:04:05.600Z,7.30
2024-02-02T14:06:32.973Z,7.30
2024-02-02T14:09:00.057Z,7.30
2024-02-02T14:11:28.568Z,7.20
2024-02-02T14:13:56.427Z,7.20
2024-02-02T14:16:27.436Z,7.20
2024-02-02T14:19:05.845Z,7.20
2024-02-02T14:21:37.498Z,7.20
2024-02-02T14:24:15.879Z,7.20
2024-02-02T14:26:53.733Z,7.10
2024-02-02T14:29:25.622Z,7.10
2024-02-02T14:31:54.612Z,7.20
2024-02-02T14:34:22.813Z,7.20
2024-02-02T14:36:50.149Z,7.10
2024-02-02T14:39:27.596Z,7.10
2024-02-02T14:41:56.293Z,7.10
2024-02-02T14:44:28.023Z,7.10
2024-02-02T14:46:58.268Z,7.10
2024-02-02T14:49:27.006Z,7.10
2024-02-02T14:51:55.178Z,7.10
2024-02-02T14:54:22.949Z,7.00
2024-02-02T14:56:49.941Z,7.10
2024-02-02T14:59:25.094Z,7.10
2024-02-02T15:01:55.118Z,7.00
2024-02-02T15:04:25.151Z,7.00
2024-02-02T15:06:52.778Z,7.10
2024-02-02T15:09:20.732Z,7.10
2024-02-02T15:11:47.788Z,7.10
2024-02-02T15:14:15.707Z,7.10
2024-02-02T15:16:45.534Z,7.10
2024-02-02T15:19:15.675Z,7.10
2024-02-02T15:21:44.692Z,7.10
2024-02-02T15:24:11.922Z,7.10
2024-02-02T15:26:42.071Z,7.10
2024-02-02T15:29:10.195Z,7.10
2024-02-02T15:31:40.290Z,7.10
2024-02-02T15:34:10.396Z,7.10
2024-02-02T15:36:37.498Z,7.00
2024-02-02T15:39:19.147Z,7.00
2024-02-02T15:41:56.890Z,7.00
2024-02-02T15:44:25.140Z,7.00
2024-02-02T15:46:54.081Z,6.90
2024-02-02T15:49:21.185Z,6.90
2024-02-02T15:51:48.344Z,6.90
2024-02-02T15:54:16.283Z,6.90
2024-02-02T15:56:50.466Z,6.80
2024-02-02T15:59:17.370Z,6.80
2024-02-02T16:01:48.224Z,6.80
2024-02-02T16:04:15.469Z,6.80
2024-02-02T16:06:42.617Z,6.80
2024-02-02T16:09:09.710Z,6.70
2024-02-02T16:11:36.829Z,6.70
2024-02-02T16:14:03.673Z,6.60
2024-02-02T16:16:30.958Z,6.60
2024-02-02T16:18:58.075Z,6.60
2024-02-02T16:21:25.334Z,6.60
2024-02-02T16:23:52.248Z,6.60
2024-02-02T16:26:19.130Z,6.50
2024-02-02T16:28:46.191Z,6.50
2024-02-02T16:31:13.095Z,6.40
2024-02-02T16:33:40.158Z,6.40
2024-02-02T16:36:07.298Z,6.30
2024-02-02T16:38:35.944Z,6.30
2024-02-02T16:41:03.957Z,6.20
2024-02-02T16:43:30.913Z,6.20
2024-02-02T16:45:57.733Z,6.20
2024-02-02T16:48:24.982Z,6.10
2024-02-02T16:50:54.762Z,6.10
2024-02-02T16:53:21.742Z,6.10
2024-02-02T16:55:49.015Z,6.10
2024-02-02T16:58:15.938Z,6.00
2024-02-02T17:00:42.820Z,6.00
2024-02-02T17:03:11.919Z,6.00
2024-02-02T17:05:39.508Z,6.00
2024-02-02T17:08:06.876Z,6.00
2024-02-02T17:10:33.685Z,5.90
2024-02-02T17:13:00.780Z,5.90
2024-02-02T17:15:30.405Z,5.90
2024-02-02T17:17:57.345Z,5.90
2024-02-02T17:20:26.940Z,5.80
2024-02-02T17:22:55.249Z,5.80
2024-02-02T17:25:22.272Z,5.80
2024-02-02T17:27:49.158Z,5.80
2024-02-02T17:30:17.836Z,5.70
2024-02-02T17:32:44.831Z,5.70
2024-02-02T17:35:11.854Z,5.70
2024-02-02T17:37:40.164Z,5.70
2024-02-02T17:40:08.568Z,5.70
2024-02-02T17:42:37.923Z,5.70
2024-02-02T17:45:05.695Z,5.70
2024-02-02T17:47:32.646Z,5.70
2024-02-02T17:50:01.612Z,5.70
2024-02-02T17:52:30.302Z,5.70
2024-02-02T17:54:57.166Z,5.70
2024-02-02T17:57:24.203Z,5.70
2024-02-02T17:59:51.297Z,5.70
2024-02-02T18:02:18.332Z,5.70
2024-02-02T18:04:45.228Z,5.70
2024-02-02T18:07:13.191Z,5.70
2024-02-02T18:09:40.948Z,5.60
2024-02-02T18:12:12.147Z,5.60
2024-02-02T18:14:40.130Z,5.60
2024-02-02T18:17:07.551Z,5.60
2024-02-02T18:19:34.661Z,5.60
2024-02-02T18:22:01.633Z,5.60
2024-02-02T18:24:31.322Z,5.60
2024-02-02T18:27:01.181Z,5.60
2024-02-02T18:29:31.428Z,5.60
2024-02-02T18:31:58.417Z,5.50
2024-02-02T18:34:27.382Z,5.50
2024-02-02T18:36:54.428Z,5.50
2024-02-02T18:39:27.537Z,5.40
2024-02-02T18:41:54.420Z,5.40
2024-02-02T18:44:24.168Z,5.30
2024-02-02T18:46:53.442Z,5.20
2024-02-02T18:49:20.357Z,5.20
2024-02-02T18:51:48.079Z,5.20
2024-02-02T18:54:26.977Z,5.10
2024-02-02T18:56:53.957Z,5.10
2024-02-02T18:59:20.798Z,5.10
2024-02-02T19:01:49.846Z,5.10
2024-02-02T19:04:23.961Z,5.10
2024-02-02T19:06:50.958Z,5.10
2024-02-02T19:09:24.305Z,5.10
2024-02-02T19:11:52.345Z,5.10
2024-02-02T19:14:21.489Z,5.10
2024-02-02T19:16:51.799Z,5.10
2024-02-02T19:19:22.690Z,5.10
2024-02-02T19:21:55.698Z,5.10
2024-02-02T19:24:22.657Z,5.10
2024-02-02T19:26:54.993Z,5.10
2024-02-02T19:29:32.691Z,5.00
2024-02-02T19:32:19.641Z,5.00
2024-02-02T19:34:46.726Z,4.90
2024-02-02T19:37:13.848Z,4.90
2024-02-02T19:39:45.144Z,4.80
2024-02-02T19:42:12.133Z,4.80
2024-02-02T19:44:41.170Z,4.70
2024-02-02T19:47:14.901Z,4.60
2024-02-02T19:49:42.038Z,4.60
2024-02-02T19:52:09.035Z,4.40
2024-02-02T19:54:36.974Z,4.50
2024-02-02T19:57:05.256Z,4.40
2024-02-02T19:59:32.403Z,4.60
2024-02-02T20:02:03.811Z,4.70
2024-02-02T20:04:31.129Z,4.80
2024-02-02T20:07:00.856Z,4.90
2024-02-02T20:09:31.185Z,4.90
2024-02-02T20:11:58.200Z,5.00
2024-02-02T20:14:25.084Z,5.10
2024-02-02T20:16:54.743Z,5.00
2024-02-02T20:19:21.769Z,5.10
2024-02-02T20:21:49.093Z,5.20
2024-02-02T20:24:16.208Z,5.20
2024-02-02T20:26:43.967Z,5.20
2024-02-02T20:29:15.584Z,5.20
2024-02-02T20:31:45.123Z,5.20
2024-02-02T20:34:12.104Z,5.10
2024-02-02T20:36:40.099Z,5.10
2024-02-02T20:39:07.303Z,5.10
2024-02-02T20:41:35.104Z,5.10
2024-02-02T20:44:05.462Z,5.10
2024-02-02T20:46:32.426Z,5.00
2024-02-02T20:48:59.466Z,5.00
2024-02-02T20:51:26.542Z,4.90
2024-02-02T20:53:53.511Z,4.90
2024-02-02T20:56:20.497Z,4.90
2024-02-02T20:58:47.575Z,4.90
2024-02-02T21:01:14.976Z,4.80
2024-02-02T21:03:42.421Z,4.70
2024-02-02T21:06:11.878Z,4.50
2024-02-02T21:08:39.583Z,4.40
2024-02-02T21:11:10.103Z,4.10
2024-02-02T21:13:38.982Z,3.90
2024-02-02T21:16:06.165Z,3.90
2024-02-02T21:18:36.643Z,3.80
2024-02-02T21:21:09.190Z,3.70
2024-02-02T21:23:36.809Z,3.60
2024-02-02T21:26:04.083Z,3.60
2024-02-02T21:28:30.987Z,3.50
2024-02-02T21:30:59.996Z,3.40
2024-02-02T21:33:29.480Z,3.40
2024-02-02T21:36:00.970Z,3.30
2024-02-02T21:38:27.964Z,3.30
2024-02-02T21:40:55.281Z,3.30
2024-02-02T21:43:22.179Z,3.30
2024-02-02T21:45:52.066Z,3.20
2024-02-02T21:48:22.582Z,3.20
2024-02-02T21:50:50.013Z,3.00
2024-02-02T21:56:23.663Z,2.90
2024-02-02T21:58:50.587Z,2.80
2024-02-02T22:01:20.424Z,2.70
2024-02-02T22:03:47.338Z,2.70
2024-02-02T22:06:16.086Z,2.60
2024-02-02T22:08:43.127Z,2.50
2024-02-02T22:11:14.402Z,2.40
2024-02-02T22:13:43.720Z,2.40
2024-02-02T22:16:19.663Z,2.40
2024-02-02T22:18:47.279Z,2.40
2024-02-02T22:21:35.020Z,2.40
2024-02-02T22:24:06.117Z,2.40
2024-02-02T22:26:35.600Z,2.20
2024-02-02T22:29:05.844Z,2.20
2024-02-02T22:31:37.819Z,2.20
2024-02-02T22:34:05.375Z,2.10
2024-02-02T22:36:32.462Z,2.10
2024-02-02T22:38:59.290Z,2.10
2024-02-02T22:41:33.123Z,2.10
2024-02-02T22:44:02.876Z,2.10
2024-02-02T22:46:34.247Z,2.00
2024-02-02T22:49:03.636Z,2.00
2024-02-02T22:51:30.848Z,2.10
2024-02-02T22:54:29.036Z,2.10
2024-02-02T22:56:55.874Z,2.20
2024-02-02T22:59:22.864Z,2.20
2024-02-02T23:01:49.886Z,2.20
2024-02-02T23:04:16.865Z,2.20
2024-02-02T23:06:43.916Z,2.30
2024-02-02T23:09:10.875Z,2.40
2024-02-02T23:11:37.748Z,2.50
2024-02-02T23:14:04.950Z,2.80
2024-02-02T23:18:58.799Z,3.50
2024-02-02T23:21:25.872Z,3.70
2024-02-02T23:23:52.762Z,3.90
2024-02-02T23:26:19.747Z,4.10
2024-02-02T23:28:46.631Z,4.10
2024-02-02T23:31:13.468Z,4.10
2024-02-02T23:33:41.379Z,4.20
2024-02-02T23:36:08.960Z,4.20
2024-02-02T23:38:35.794Z,4.20
2024-02-02T23:41:02.722Z,4.10
2024-02-02T23:43:29.656Z,4.20
2024-02-02T23:45:56.569Z,4.30
2024-02-02T23:48:23.739Z,4.30
2024-02-02T23:50:50.805Z,4.30
2024-02-02T23:53:17.687Z,4.30
2024-02-02T23:55:44.613Z,4.20
2024-02-02T23:58:11.452Z,4.20
